Time;durP1;ratioP1;P1;durP2;ratioP2;P2;SDS_P1;SDS_P2;PMS_P1;PMS_P2;Temp;Humidity;BMP_temperature;BMP_pressure;BME280_temperature;BME280_humidity;BME280_pressure;Samples;Min_cycle;Max_cycle;Signal;HPM_P1;HPM_P2
2022/07/05 04:02:36;;;;;;;3.33;2.20;;;12.70;96.30;;;;;;5042617;22;21029;-79
2022/07/05 04:05:01;;;;;;;2.50;2.10;;;12.80;96.30;;;;;;5012867;28;20420;-77
2022/07/05 04:07:27;;;;;;;3.10;2.27;;;12.90;96.30;;;;;;5012240;28;20176;-76
2022/07/05 04:09:52;;;;;;;4.00;2.37;;;13.10;96.30;;;;;;5004855;28;20243;-78
2022/07/05 04:12:18;;;;;;;2.50;2.30;;;13.40;96.30;;;;;;4991320;28;20699;-77
2022/07/05 04:14:43;;;;;;;2.87;2.10;;;13.50;96.30;;;;;;4992845;28;20288;-77
2022/07/05 04:17:09;;;;;;;4.17;2.13;;;13.80;96.30;;;;;;4995814;28;20174;-78
2022/07/05 04:19:35;;;;;;;2.37;2.17;;;14.10;96.30;;;;;;5001945;28;20192;-78
2022/07/05 04:22:00;;;;;;;2.60;2.17;;;14.80;96.30;;;;;;4992747;28;20860;-78
2022/07/05 04:24:26;;;;;;;4.30;2.10;;;15.40;96.30;;;;;;4992856;28;20181;-78
2022/07/05 04:26:51;;;;;;;3.53;1.73;;;15.70;96.30;;;;;;4991743;28;20184;-76
2022/07/05 04:29:17;;;;;;;2.17;1.97;;;15.90;96.30;;;;;;4989492;28;20634;-74
2022/07/05 04:31:42;;;;;;;2.90;2.10;;;15.80;96.30;;;;;;4978688;28;20196;-74
2022/07/05 04:34:08;;;;;;;2.40;2.20;;;16.00;96.30;;;;;;4978392;28;20193;-74
2022/07/05 04:36:34;;;;;;;2.00;1.80;;;16.30;96.30;;;;;;5006500;28;20548;-74
2022/07/05 04:38:59;;;;;;;3.27;2.03;;;16.40;96.30;;;;;;4998570;28;20243;-75
2022/07/05 04:41:25;;;;;;;3.20;1.90;;;16.40;96.30;;;;;;4984010;28;20484;-75
2022/07/05 04:43:50;;;;;;;4.50;1.90;;;17.00;96.30;;;;;;4981341;28;20186;-75
2022/07/05 04:46:16;;;;;;;5.43;1.70;;;17.80;96.30;;;;;;4971744;28;20321;-76
2022/07/05 04:48:41;;;;;;;2.47;1.77;;;18.70;96.30;;;;;;4971195;28;20174;-76
2022/07/05 04:51:07;;;;;;;2.27;1.70;;;19.00;96.30;;;;;;4973133;28;20209;-76
2022/07/05 04:53:32;;;;;;;6.20;1.87;;;19.80;96.30;;;;;;4978055;28;20181;-76
2022/07/05 04:55:58;;;;;;;7.30;2.00;;;20.80;96.30;;;;;;4980644;28;20681;-76
2022/07/05 04:58:23;;;;;;;4.80;1.90;;;21.70;95.80;;;;;;4982875;28;20221;-76
2022/07/05 05:00:49;;;;;;;7.80;1.63;;;22.10;94.00;;;;;;4972876;28;20571;-76
2022/07/05 05:03:14;;;;;;;2.80;1.87;;;23.00;91.40;;;;;;4976464;28;20177;-78
2022/07/05 05:05:40;;;;;;;1.87;1.37;;;23.80;87.70;;;;;;4988483;28;20555;-76
2022/07/05 05:08:05;;;;;;;3.13;1.67;;;23.80;89.10;;;;;;4991493;28;20184;-76
2022/07/05 05:10:31;;;;;;;2.87;1.67;;;24.80;85.10;;;;;;4994956;28;20169;-76
2022/07/05 05:12:56;;;;;;;2.07;1.27;;;24.60;84.80;;;;;;4996443;28;20209;-76
2022/07/05 05:15:22;;;;;;;2.53;1.90;;;25.30;83.70;;;;;;4996254;28;20784;-76
2022/07/05 05:17:47;;;;;;;5.93;1.57;;;24.60;84.10;;;;;;4995683;28;20192;-76
2022/07/05 05:20:15;;;;;;;2.10;1.37;;;24.90;86.10;;;;;;4997810;28;20196;-77
2022/07/05 05:22:42;;;;;;;2.30;1.67;;;25.70;83.70;;;;;;4977421;28;20183;-76
2022/07/05 05:25:08;;;;;;;5.20;1.60;;;26.30;82.50;;;;;;4989550;28;20467;-76
2022/07/05 05:27:34;;;;;;;3.20;1.60;;;26.10;82.20;;;;;;4987863;28;21580;-79
2022/07/05 05:30:00;;;;;;;4.40;1.70;;;25.20;83.10;;;;;;4992039;28;20404;-78
2022/07/05 05:32:26;;;;;;;8.53;2.13;;;25.10;84.20;;;;;;4988227;28;20209;-79
2022/07/05 05:34:51;;;;;;;1.70;1.47;;;25.00;85.80;;;;;;4990433;28;20200;-78
2022/07/05 05:37:17;;;;;;;4.60;1.70;;;26.50;81.20;;;;;;4990678;28;20224;-78
2022/07/05 05:39:42;;;;;;;2.87;1.30;;;25.90;81.00;;;;;;4992504;28;20197;-78
2022/07/05 05:42:08;;;;;;;4.00;1.40;;;26.10;82.00;;;;;;4991800;28;20227;-78
2022/07/05 05:44:33;;;;;;;5.10;1.50;;;26.50;80.60;;;;;;4989696;28;20526;-78
2022/07/05 05:46:59;;;;;;;4.73;1.57;;;25.90;81.60;;;;;;4990073;28;20192;-77
2022/07/05 05:49:24;;;;;;;8.00;1.77;;;24.90;83.30;;;;;;4988362;28;20282;-77
2022/07/05 05:51:50;;;;;;;7.10;1.90;;;24.00;87.50;;;;;;4991392;28;20251;-77
2022/07/05 05:54:15;;;;;;;2.90;1.50;;;24.80;86.10;;;;;;4989646;28;20232;-77
2022/07/05 05:56:41;;;;;;;6.07;1.90;;;24.70;86.00;;;;;;4991823;28;20181;-78
2022/07/05 05:59:06;;;;;;;2.10;1.70;;;25.30;85.70;;;;;;4985022;28;20276;-78
2022/07/05 06:01:32;;;;;;;2.93;1.53;;;26.20;83.10;;;;;;4993112;28;20606;-78
2022/07/05 06:03:57;;;;;;;2.57;1.80;;;25.50;83.70;;;;;;4995350;28;20544;-77
2022/07/05 06:06:23;;;;;;;2.37;1.57;;;25.40;85.40;;;;;;4995304;28;20196;-78
2022/07/05 06:08:48;;;;;;;2.20;1.70;;;26.60;82.20;;;;;;4995119;28;20263;-78
2022/07/05 06:11:14;;;;;;;6.27;1.83;;;26.80;81.60;;;;;;4995312;28;20197;-78
2022/07/05 06:13:39;;;;;;;3.47;2.87;;;27.70;78.00;;;;;;4986289;28;20632;-77
2022/07/05 06:16:08;;;;;;;4.73;1.90;;;27.80;78.80;;;;;;4979561;28;20220;-77
2022/07/05 06:18:34;;;;;;;1.97;1.60;;;28.00;76.90;;;;;;4980023;28;20275;-77
2022/07/05 06:20:59;;;;;;;4.72;1.80;;;29.20;75.90;;;;;;4993826;28;20563;-78
2022/07/05 06:23:25;;;;;;;2.20;1.58;;;30.40;71.30;;;;;;4994996;28;20184;-78
2022/07/05 06:25:51;;;;;;;1.60;1.35;;;31.30;70.90;;;;;;4990467;28;20189;-78
2022/07/05 06:28:16;;;;;;;3.30;1.52;;;31.40;68.10;;;;;;4994325;28;20649;-78
2022/07/05 06:30:42;;;;;;;6.07;1.67;;;31.80;68.10;;;;;;4994365;28;20262;-78
2022/07/05 06:33:08;;;;;;;4.35;1.50;;;32.00;67.50;;;;;;4980701;28;20181;-79
2022/07/05 06:35:34;;;;;;;2.30;1.35;;;31.80;65.50;;;;;;4975394;28;20201;-79
2022/07/05 06:38:05;;;;;;;2.22;1.35;;;32.40;66.30;;;;;;4988930;28;20752;-78
2022/07/05 06:40:33;;;;;;;3.58;1.23;;;32.50;62.40;;;;;;5006467;28;20184;-78
2022/07/05 06:43:01;;;;;;;3.17;1.60;;;32.10;65.60;;;;;;5014562;28;20636;-78
2022/07/05 06:45:26;;;;;;;5.57;1.50;;;32.10;65.50;;;;;;5014226;28;20203;-79
2022/07/05 06:48:06;;;;;;;2.60;1.40;;;32.80;65.20;;;;;;5012857;28;20176;-79
2022/07/05 06:50:35;;;;;;;3.15;1.20;;;33.00;62.00;;;;;;4991599;28;20182;-78
2022/07/05 06:53:01;;;;;;;4.07;1.75;;;31.50;61.70;;;;;;4974957;28;20174;-78
2022/07/05 06:55:27;;;;;;;2.50;1.50;;;31.10;63.80;;;;;;4975211;28;20708;-77
2022/07/05 06:58:03;;;;;;;5.93;1.50;;;30.30;66.20;;;;;;4977103;28;20182;-77
2022/07/05 07:00:29;;;;;;;1.97;1.13;;;30.80;66.30;;;;;;4978918;28;20180;-78
2022/07/05 07:02:54;;;;;;;5.03;1.60;;;31.30;65.70;;;;;;4979365;28;20499;-79
2022/07/05 07:05:20;;;;;;;4.83;1.60;;;31.70;62.50;;;;;;4979566;28;20486;-79
2022/07/05 07:10:29;;;;;;;3.47;1.30;;;29.90;64.20;;;;;;4988014;28;20216;-79
2022/07/05 07:12:56;;;;;;;2.00;1.23;;;29.70;66.50;;;;;;4983699;28;20519;-79
2022/07/05 07:15:22;;;;;;;1.80;1.20;;;30.40;64.00;;;;;;4979734;28;20259;-79
2022/07/05 07:17:47;;;;;;;1.97;1.10;;;30.60;64.60;;;;;;4979056;28;20436;-79
2022/07/05 07:20:13;;;;;;;5.67;1.20;;;29.30;68.00;;;;;;4986525;28;20189;-78
2022/07/05 07:22:38;;;;;;;3.63;1.50;;;30.10;68.90;;;;;;4990208;28;20227;-78
2022/07/05 07:25:05;;;;;;;7.80;1.63;;;31.20;65.10;;;;;;4984273;28;20655;-79
2022/07/05 07:27:31;;;;;;;3.90;1.20;;;30.50;64.30;;;;;;4978733;28;20216;-79
2022/07/05 07:29:56;;;;;;;2.57;1.33;;;29.00;64.80;;;;;;4993833;28;20491;-78
2022/07/05 07:32:22;;;;;;;2.80;1.10;;;28.60;67.40;;;;;;4982692;28;20219;-79
2022/07/05 07:34:47;;;;;;;4.77;1.40;;;29.30;69.20;;;;;;4978462;28;21752;-78
2022/07/05 07:37:13;;;;;;;3.63;1.10;;;31.00;66.50;;;;;;4978302;28;20582;-78
2022/07/05 07:39:39;;;;;;;2.17;1.00;;;30.30;61.00;;;;;;4997923;28;20176;-78
2022/07/05 07:42:05;;;;;;;4.07;1.10;;;30.10;61.90;;;;;;5013051;28;20200;-79
2022/07/05 07:44:31;;;;;;;2.00;1.00;;;30.10;63.70;;;;;;5000604;28;20521;-77
2022/07/05 07:46:56;;;;;;;3.60;1.10;;;31.10;67.00;;;;;;4992948;28;20902;-77
2022/07/05 07:49:22;;;;;;;4.50;1.07;;;31.80;61.40;;;;;;4991084;28;20210;-76
2022/07/05 07:51:48;;;;;;;1.30;1.20;;;31.10;60.50;;;;;;4993488;28;20200;-77
2022/07/05 07:54:13;;;;;;;1.50;1.03;;;30.40;62.30;;;;;;4993430;28;20169;-76
2022/07/05 07:56:39;;;;;;;2.63;1.07;;;30.50;65.00;;;;;;4989197;28;20193;-77
2022/07/05 07:59:04;;;;;;;1.93;1.10;;;30.90;62.30;;;;;;4973901;28;20166;-77
2022/07/05 08:01:31;;;;;;;4.07;1.27;;;30.80;63.80;;;;;;4984188;28;20672;-77
2022/07/05 08:03:56;;;;;;;1.43;1.00;;;30.40;60.80;;;;;;4992024;28;20556;-77
2022/07/05 08:06:22;;;;;;;1.37;0.90;;;30.40;62.20;;;;;;4993395;28;20901;-76
2022/07/05 08:08:47;;;;;;;3.57;0.97;;;29.50;61.30;;;;;;4992993;28;20192;-76
2022/07/05 08:11:14;;;;;;;2.47;1.00;;;28.90;63.10;;;;;;4991985;28;20274;-76
2022/07/05 08:13:42;;;;;;;3.03;1.50;;;29.00;61.30;;;;;;4993181;28;20166;-77
2022/07/05 08:16:08;;;;;;;2.50;0.90;;;28.60;62.70;;;;;;4991700;28;20456;-77
2022/07/05 08:21:30;;;;;;;17.17;1.93;;;30.40;63.20;;;;;;4975563;28;20822;-77
2022/07/05 08:24:00;;;;;;;1.20;0.90;;;29.80;61.40;;;;;;4978423;28;20494;-79
2022/07/05 08:26:26;;;;;;;2.43;1.00;;;29.80;62.90;;;;;;4976537;28;20439;-78
2022/07/05 08:28:52;;;;;;;2.07;1.10;;;30.10;62.30;;;;;;4990037;28;20432;-79
2022/07/05 08:31:18;;;;;;;1.73;1.00;;;30.10;63.00;;;;;;4985355;28;20817;-79
2022/07/05 08:33:43;;;;;;;1.17;0.90;;;29.80;64.50;;;;;;4977893;28;20557;-79
2022/07/05 08:36:09;;;;;;;4.83;1.00;;;29.50;61.10;;;;;;4977849;28;20468;-79
2022/07/05 08:38:34;;;;;;;2.60;0.93;;;30.30;64.40;;;;;;4990829;28;20265;-79
2022/07/05 08:41:02;;;;;;;3.20;1.00;;;29.80;62.50;;;;;;4992571;28;20674;-79
2022/07/05 08:43:28;;;;;;;4.57;1.40;;;29.20;65.80;;;;;;4992722;28;20677;-78
2022/07/05 08:45:56;;;;;;;6.73;1.10;;;29.40;63.00;;;;;;4992686;28;20447;-80
2022/07/05 08:48:23;;;;;;;6.93;1.10;;;29.10;63.50;;;;;;4992170;28;20431;-79
2022/07/05 08:50:51;;;;;;;2.47;0.90;;;29.20;65.40;;;;;;4987658;28;20452;-78
2022/07/05 08:53:19;;;;;;;3.30;1.03;;;29.30;64.50;;;;;;4976993;28;20420;-78
2022/07/05 08:55:45;;;;;;;1.20;1.00;;;29.00;63.50;;;;;;4977541;28;20466;-78
2022/07/05 08:58:11;;;;;;;3.03;1.20;;;29.00;66.00;;;;;;4987987;28;20470;-79
2022/07/05 09:00:38;;;;;;;6.47;1.03;;;28.90;64.60;;;;;;4991001;28;20452;-78
2022/07/05 09:03:05;;;;;;;1.10;1.00;;;28.40;63.70;;;;;;4977452;28;20197;-78
2022/07/05 09:05:31;;;;;;;4.60;1.00;;;;;;;;;;4977613;28;20618;-78
2022/07/05 09:08:00;;;;;;;5.10;1.00;;;27.70;67.90;;;;;;4983901;28;20515;-77
2022/07/05 09:10:28;;;;;;;2.50;1.27;;;27.80;65.90;;;;;;4992056;28;20191;-77
2022/07/05 09:12:54;;;;;;;1.00;0.80;;;28.50;68.00;;;;;;4992329;28;20422;-77
2022/07/05 09:15:20;;;;;;;9.57;1.00;;;28.90;66.90;;;;;;4990075;28;20602;-77
2022/07/05 09:17:46;;;;;;;3.97;1.27;;;28.20;66.00;;;;;;4991129;28;20942;-76
2022/07/05 09:20:14;;;;;;;3.20;1.20;;;28.10;68.20;;;;;;4981645;28;20194;-77
2022/07/05 09:22:54;;;;;;;4.40;1.00;;;28.90;67.50;;;;;;4974934;28;20531;-77
2022/07/05 09:25:23;;;;;;;1.13;0.80;;;28.80;64.10;;;;;;4977201;28;20460;-77
2022/07/05 09:27:55;;;;;;;5.07;0.80;;;29.30;63.90;;;;;;4977107;28;20427;-77
2022/07/05 09:30:25;;;;;;;2.10;0.90;;;29.00;65.60;;;;;;4991509;28;20412;-76
2022/07/05 09:33:05;;;;;;;1.70;0.90;;;28.60;61.80;;;;;;4984755;28;21175;-76
2022/07/05 09:35:32;;;;;;;2.83;1.00;;;28.30;65.80;;;;;;4977918;28;20799;-76
2022/07/05 09:37:58;;;;;;;3.33;1.03;;;27.90;64.20;;;;;;4978418;28;20412;-77
2022/07/05 09:40:24;;;;;;;1.87;1.10;;;27.80;64.80;;;;;;5000078;28;20510;-76
2022/07/05 09:42:50;;;;;;;2.63;1.10;;;28.80;68.00;;;;;;4979576;28;21041;-76
2022/07/05 09:45:23;;;;;;;3.00;0.87;;;28.90;65.30;;;;;;4992040;28;20209;-78
2022/07/05 09:47:49;;;;;;;4.40;0.90;;;28.80;63.50;;;;;;4979808;28;20189;-78
2022/07/05 09:50:15;;;;;;;2.93;0.90;;;28.70;65.30;;;;;;4988096;28;20416;-78
2022/07/05 09:52:42;;;;;;;3.10;1.00;;;28.90;65.00;;;;;;4985973;28;20440;-78
2022/07/05 09:55:10;;;;;;;4.77;1.00;;;29.00;65.60;;;;;;4982579;28;20193;-78
2022/07/05 09:57:40;;;;;;;2.67;1.20;;;28.50;64.30;;;;;;4987704;28;20412;-78
2022/07/05 10:00:09;;;;;;;9.93;1.30;;;28.20;66.60;;;;;;4976389;28;20409;-78
2022/07/05 10:02:40;;;;;;;1.10;0.80;;;27.10;64.00;;;;;;4974661;28;20459;-77
2022/07/05 10:05:12;;;;;;;4.97;1.17;;;26.50;64.50;;;;;;4976118;28;20409;-77
2022/07/05 10:07:47;;;;;;;2.17;1.10;;;27.50;69.40;;;;;;4975596;28;20523;-78
2022/07/05 10:10:15;;;;;;;2.73;0.90;;;28.30;65.30;;;;;;5001187;28;20545;-78
2022/07/05 10:12:42;;;;;;;5.47;1.40;;;27.90;66.10;;;;;;5014847;28;20541;-78
2022/07/05 10:15:11;;;;;;;2.53;1.00;;;27.20;66.90;;;;;;4990520;28;20463;-78
2022/07/05 10:17:41;;;;;;;5.27;1.00;;;27.50;68.60;;;;;;4979112;28;20421;-78
2022/07/05 10:20:41;;;;;;;2.43;0.97;;;28.00;67.50;;;;;;4982465;28;20413;-77
2022/07/05 10:23:09;;;;;;;1.00;0.70;;;28.00;66.00;;;;;;4971070;28;20433;-77
2022/07/05 10:25:36;;;;;;;6.03;1.20;;;28.40;65.20;;;;;;4975641;28;20424;-77
2022/07/05 10:28:03;;;;;;;1.70;1.00;;;28.90;67.30;;;;;;4975242;28;20420;-77
2022/07/05 10:30:29;;;;;;;2.70;1.00;;;27.70;66.20;;;;;;4980806;28;20973;-77
2022/07/05 10:32:56;;;;;;;1.87;1.00;;;27.00;67.00;;;;;;4993842;28;20436;-77
2022/07/05 10:35:22;;;;;;;3.23;1.10;;;27.30;70.90;;;;;;4995561;28;20638;-77
2022/07/05 10:37:48;;;;;;;2.73;1.30;;;28.10;68.00;;;;;;5007159;28;20507;-77
2022/07/05 10:40:15;;;;;;;5.07;0.80;;;29.00;68.30;;;;;;4979524;28;20181;-78
2022/07/05 10:42:41;;;;;;;1.20;0.90;;;29.70;65.80;;;;;;4977007;28;20526;-78
2022/07/05 10:45:26;;;;;;;1.93;1.00;;;30.30;64.30;;;;;;4983315;28;20456;-78
2022/07/05 10:48:10;;;;;;;1.33;0.90;;;29.70;61.00;;;;;;4994283;28;20416;-77
2022/07/05 10:50:58;;;;;;;1.20;0.90;;;28.50;64.30;;;;;;4994373;28;20416;-78
2022/07/05 10:53:25;;;;;;;1.00;0.70;;;27.70;66.40;;;;;;4987444;28;20539;-77
2022/07/05 10:56:11;;;;;;;1.20;0.80;;;27.50;66.60;;;;;;4977958;28;20514;-77
2022/07/05 10:58:38;;;;;;;2.77;1.00;;;27.20;72.50;;;;;;4977964;28;20415;-77
2022/07/05 11:01:18;;;;;;;4.17;1.00;;;27.90;64.70;;;;;;4993269;28;20448;-77
2022/07/05 11:03:46;;;;;;;3.20;1.00;;;26.80;65.20;;;;;;4994183;28;20404;-77
2022/07/05 11:06:25;;;;;;;7.23;1.00;;;27.10;68.90;;;;;;4983849;28;20424;-77
2022/07/05 11:09:00;;;;;;;1.93;0.87;;;28.20;66.60;;;;;;4977190;28;20531;-77
2022/07/05 11:11:28;;;;;;;2.70;1.00;;;27.30;66.10;;;;;;4979401;28;20543;-78
2022/07/05 11:13:54;;;;;;;2.23;0.90;;;26.80;68.90;;;;;;4993498;28;20424;-78
2022/07/05 11:16:24;;;;;;;4.40;0.80;;;27.20;68.50;;;;;;4979311;28;20476;-78
2022/07/05 11:18:51;;;;;;;1.90;0.97;;;27.40;70.00;;;;;;4989132;28;20526;-78
2022/07/05 11:21:21;;;;;;;1.10;0.90;;;27.40;66.80;;;;;;4977638;28;20539;-77
2022/07/05 11:23:48;;;;;;;1.40;0.70;;;27.50;68.20;;;;;;4983411;28;20917;-77
2022/07/05 11:26:16;;;;;;;3.07;1.07;;;28.00;68.20;;;;;;4993970;28;20999;-77
2022/07/05 11:28:43;;;;;;;1.30;1.00;;;27.60;66.60;;;;;;4974198;28;20421;-77
2022/07/05 11:31:09;;;;;;;6.87;0.90;;;27.30;66.40;;;;;;4978277;28;20436;-77
2022/07/05 11:33:42;;;;;;;4.03;0.80;;;26.60;69.10;;;;;;4993574;28;20971;-77
2022/07/05 11:36:25;;;;;;;4.80;1.00;;;26.10;71.20;;;;;;4993924;28;20212;-77
2022/07/05 11:39:20;;;;;;;1.93;1.03;;;26.20;72.60;;;;;;4993686;28;20408;-77
2022/07/05 11:41:49;;;;;;;3.97;1.10;;;26.80;72.70;;;;;;4972135;28;20476;-77
2022/07/05 11:44:16;;;;;;;3.03;0.90;;;28.00;69.20;;;;;;4973036;28;20512;-77
2022/07/05 11:46:43;;;;;;;1.13;0.90;;;28.10;63.90;;;;;;4974158;28;20413;-77
2022/07/05 11:49:08;;;;;;;3.03;0.87;;;27.90;65.20;;;;;;4973855;28;20445;-77
2022/07/05 11:51:34;;;;;;;2.70;1.00;;;;;;;;;;4973824;28;20491;-77
2022/07/05 11:54:01;;;;;;;3.20;0.90;;;26.90;66.60;;;;;;4974190;28;20185;-77
2022/07/05 11:56:27;;;;;;;2.07;1.00;;;26.70;70.10;;;;;;4973971;28;20986;-77
2022/07/05 11:58:53;;;;;;;3.67;1.03;;;26.60;67.50;;;;;;4974481;28;20508;-77
2022/07/05 12:01:18;;;;;;;1.40;0.87;;;26.30;70.40;;;;;;4973845;28;20693;-77
2022/07/05 12:03:56;;;;;;;1.40;0.80;;;25.70;70.10;;;;;;4974960;28;20185;-77
2022/07/05 12:06:24;;;;;;;2.53;0.90;;;25.60;70.30;;;;;;4978185;28;20193;-77
2022/07/05 12:09:04;;;;;;;1.40;1.00;;;25.70;69.80;;;;;;4977578;28;20436;-77
2022/07/05 12:14:20;;;;;;;4.13;1.20;;;26.60;69.10;;;;;;4993154;28;20478;-77
2022/07/05 12:16:46;;;;;;;4.17;0.90;;;;;;;;;;4991846;28;20456;-77
2022/07/05 12:19:24;;;;;;;1.50;0.80;;;27.50;69.80;;;;;;4992768;28;20417;-77
2022/07/05 12:21:54;;;;;;;3.23;0.90;;;27.70;67.30;;;;;;4993006;28;20191;-77
2022/07/05 12:24:19;;;;;;;7.33;1.10;;;26.80;64.70;;;;;;4979747;28;20905;-77
2022/07/05 12:26:45;;;;;;;3.37;1.10;;;26.50;69.50;;;;;;4977880;28;20425;-77
2022/07/05 12:29:11;;;;;;;3.60;0.90;;;;;;;;;;4992053;28;20188;-77
2022/07/05 12:31:36;;;;;;;2.23;1.23;;;28.40;67.40;;;;;;4992606;28;20205;-78
2022/07/05 12:34:21;;;;;;;2.60;1.00;;;28.20;64.80;;;;;;4993258;28;20220;-77
2022/07/05 12:36:47;;;;;;;3.00;1.07;;;28.00;67.00;;;;;;4992634;28;20539;-78
2022/07/05 12:39:18;;;;;;;1.70;0.97;;;28.70;68.10;;;;;;4977856;28;20952;-77
2022/07/05 12:41:44;;;;;;;2.90;1.30;;;28.00;64.60;;;;;;5012390;28;20432;-78
2022/07/05 12:44:09;;;;;;;2.80;1.20;;;27.30;67.40;;;;;;5012442;28;20429;-78
2022/07/05 12:46:40;;;;;;;2.43;1.30;;;26.90;69.60;;;;;;4997493;28;20177;-78
2022/07/05 12:49:06;;;;;;;6.50;0.80;;;27.30;67.20;;;;;;4991012;28;20280;-78
2022/07/05 12:51:36;;;;;;;2.97;1.00;;;27.60;68.30;;;;;;4992683;28;20475;-78
2022/07/05 12:59:31;;;;;;;2.57;1.07;;;27.20;66.90;;;;;;4992616;28;20391;-78
2022/07/05 13:01:57;;;;;;;1.87;1.03;;;26.90;67.80;;;;;;4991941;28;20452;-78
2022/07/05 13:04:22;;;;;;;1.40;0.93;;;27.20;69.20;;;;;;4991740;28;20173;-78
2022/07/05 13:06:55;;;;;;;8.93;1.13;;;27.80;67.40;;;;;;4972845;28;20276;-77
2022/07/05 13:12:19;;;;;;;1.60;0.80;;;28.50;65.50;;;;;;4986782;28;20509;-77
2022/07/05 13:14:46;;;;;;;9.60;1.10;;;28.70;66.30;;;;;;4972992;28;20916;-77
2022/07/05 13:17:13;;;;;;;2.60;1.13;;;28.60;64.20;;;;;;4991646;28;20416;-77
2022/07/05 13:19:44;;;;;;;8.90;1.30;;;28.40;65.50;;;;;;4991309;28;20416;-77
2022/07/05 13:22:10;;;;;;;9.63;1.07;;;;;;;;;;4990994;28;20795;-78
2022/07/05 13:24:36;;;;;;;5.53;1.43;;;28.40;63.30;;;;;;4992257;28;20404;-78
2022/07/05 13:27:02;;;;;;;1.80;1.17;;;28.20;64.30;;;;;;4992454;28;20536;-77
2022/07/05 13:29:28;;;;;;;3.00;1.10;;;;;;;;;;4983008;28;20192;-77
2022/07/05 13:31:54;;;;;;;2.07;1.10;;;;;;;;;;4996097;28;20435;-77
2022/07/05 13:34:25;;;;;;;1.90;1.07;;;28.00;65.20;;;;;;4996016;28;20412;-78
2022/07/05 13:36:52;;;;;;;4.50;1.13;;;28.00;65.30;;;;;;4994756;28;20205;-77
2022/07/05 13:39:18;;;;;;;2.50;1.10;;;28.00;62.80;;;;;;4994105;28;20424;-77
2022/07/05 13:41:43;;;;;;;7.90;1.10;;;27.50;65.40;;;;;;4996066;28;20432;-77
2022/07/05 13:44:09;;;;;;;4.40;1.17;;;28.00;67.10;;;;;;4996100;28;20416;-77
2022/07/05 13:46:34;;;;;;;2.83;1.10;;;28.60;60.80;;;;;;4995905;28;20186;-77
2022/07/05 13:49:00;;;;;;;2.67;1.30;;;28.60;62.60;;;;;;4995406;28;20252;-77
2022/07/05 13:51:25;;;;;;;2.47;1.10;;;28.50;64.40;;;;;;4995698;28;20315;-77
2022/07/05 13:53:51;;;;;;;2.50;1.00;;;28.50;65.50;;;;;;4995861;28;20169;-77
2022/07/05 13:56:16;;;;;;;2.47;1.30;;;28.60;64.90;;;;;;4994428;28;20622;-77
2022/07/05 13:58:42;;;;;;;10.40;1.10;;;28.50;62.10;;;;;;4995571;28;20205;-77
2022/07/05 14:01:08;;;;;;;5.73;1.30;;;27.50;64.00;;;;;;4995409;28;20292;-77
2022/07/05 14:03:33;;;;;;;4.53;1.20;;;27.60;66.30;;;;;;4995647;28;20248;-77
2022/07/05 14:05:59;;;;;;;8.10;1.13;;;27.50;65.10;;;;;;4995412;28;20181;-77
2022/07/05 14:08:24;;;;;;;6.20;1.27;;;27.50;64.10;;;;;;4995350;28;20181;-77
2022/07/05 14:10:56;;;;;;;5.23;1.20;;;28.00;63.10;;;;;;4995362;28;20572;-77
2022/07/05 14:13:22;;;;;;;2.47;1.00;;;28.20;64.10;;;;;;4995577;28;20179;-77
2022/07/05 14:15:48;;;;;;;1.80;0.97;;;28.30;64.20;;;;;;4995277;28;20459;-77
2022/07/05 14:18:15;;;;;;;4.23;1.20;;;28.30;64.60;;;;;;4995188;28;20808;-77
2022/07/05 14:20:44;;;;;;;2.20;1.10;;;28.20;63.70;;;;;;4995220;28;20408;-77
2022/07/05 14:23:11;;;;;;;2.03;0.97;;;27.70;62.40;;;;;;4994766;28;20479;-77
2022/07/05 14:25:37;;;;;;;4.07;1.10;;;27.70;62.60;;;;;;4993979;28;20456;-77
2022/07/05 14:28:07;;;;;;;5.00;0.90;;;27.80;63.40;;;;;;4994080;28;20470;-77
2022/07/05 14:30:35;;;;;;;3.10;1.10;;;26.70;63.90;;;;;;4992854;28;20420;-77
2022/07/05 14:33:02;;;;;;;5.60;1.20;;;26.60;63.90;;;;;;4992892;28;20414;-77
2022/07/05 14:35:28;;;;;;;4.20;1.20;;;27.10;69.60;;;;;;4993817;28;20459;-77
2022/07/05 14:37:53;;;;;;;2.80;1.10;;;27.60;65.80;;;;;;4994531;28;20562;-77
2022/07/05 14:40:18;;;;;;;1.57;1.20;;;27.40;63.50;;;;;;5004849;28;20854;-77
2022/07/05 14:42:44;;;;;;;5.17;0.90;;;27.60;66.00;;;;;;5007409;28;20191;-77
2022/07/05 14:45:10;;;;;;;4.20;1.10;;;27.60;63.50;;;;;;4994309;28;20181;-77
2022/07/05 14:47:36;;;;;;;5.80;1.53;;;27.20;63.40;;;;;;4994107;28;20511;-77
2022/07/05 14:50:02;;;;;;;5.00;1.17;;;27.20;63.00;;;;;;4993669;28;20205;-78
2022/07/05 14:52:29;;;;;;;7.10;1.30;;;27.10;64.30;;;;;;4994123;28;20222;-77
2022/07/05 14:54:54;;;;;;;4.47;1.20;;;27.70;65.70;;;;;;4993517;28;20608;-77
2022/07/05 14:57:20;;;;;;;3.33;1.10;;;27.80;64.70;;;;;;4994764;28;20408;-77
2022/07/05 14:59:45;;;;;;;6.80;1.27;;;28.30;61.80;;;;;;4994413;28;20205;-77
2022/07/05 15:02:11;;;;;;;3.00;1.10;;;27.80;61.50;;;;;;4994403;28;20209;-77
2022/07/05 15:04:38;;;;;;;6.00;1.00;;;27.40;62.20;;;;;;4994544;28;20232;-77
2022/07/05 15:07:04;;;;;;;7.10;1.17;;;27.80;65.50;;;;;;4994522;28;20232;-77
2022/07/05 15:09:29;;;;;;;1.30;0.87;;;28.10;65.60;;;;;;4994147;28;20405;-77
2022/07/05 15:11:55;;;;;;;5.63;1.03;;;27.90;63.80;;;;;;4994492;28;20204;-78
2022/07/05 15:14:20;;;;;;;2.03;1.00;;;27.90;64.70;;;;;;4994477;28;20216;-77
2022/07/05 15:16:45;;;;;;;3.80;0.80;;;27.80;63.20;;;;;;4994373;28;20227;-77
2022/07/05 15:19:11;;;;;;;2.90;1.10;;;27.40;63.80;;;;;;4994068;28;20520;-77
2022/07/05 15:21:37;;;;;;;7.23;1.30;;;27.20;65.90;;;;;;4994239;28;20192;-77
2022/07/05 15:24:02;;;;;;;1.93;1.10;;;27.50;65.20;;;;;;4994252;28;20675;-77
2022/07/05 15:26:28;;;;;;;1.60;1.00;;;27.60;64.70;;;;;;4994041;28;20173;-77
2022/07/05 15:29:06;;;;;;;3.27;1.10;;;27.70;65.50;;;;;;4987824;28;20193;-77
2022/07/05 15:31:32;;;;;;;2.00;1.00;;;27.90;64.40;;;;;;4991081;28;20565;-77
2022/07/05 15:33:58;;;;;;;3.70;1.10;;;28.00;64.60;;;;;;4984596;28;20416;-77
2022/07/05 15:36:25;;;;;;;6.77;1.20;;;27.40;65.10;;;;;;4980682;28;20858;-77
2022/07/05 15:38:52;;;;;;;3.90;1.10;;;26.80;66.20;;;;;;4993397;28;20424;-78
2022/07/05 15:41:17;;;;;;;3.73;1.13;;;26.60;67.20;;;;;;4997867;28;20432;-77
2022/07/05 15:43:43;;;;;;;4.20;1.30;;;26.10;67.10;;;;;;4983795;28;20495;-77
2022/07/05 15:46:09;;;;;;;3.60;1.40;;;25.80;67.60;;;;;;4974192;28;20697;-77
2022/07/05 15:48:34;;;;;;;3.13;1.10;;;25.40;66.10;;;;;;4974143;28;20185;-75
2022/07/05 15:51:00;;;;;;;3.40;0.90;;;25.40;67.80;;;;;;4974130;28;20433;-76
2022/07/05 15:53:29;;;;;;;5.97;1.20;;;25.30;68.80;;;;;;4977210;28;20177;-75
2022/07/05 15:55:59;;;;;;;1.00;0.90;;;24.80;68.10;;;;;;4988356;28;20644;-76
2022/07/05 15:58:28;;;;;;;2.80;1.07;;;23.90;70.10;;;;;;4982499;28;20423;-75
2022/07/05 16:00:54;;;;;;;2.30;1.30;;;23.60;72.30;;;;;;4987188;28;20460;-76
2022/07/05 16:03:20;;;;;;;3.33;1.10;;;23.40;72.50;;;;;;4989707;28;20445;-76
2022/07/05 16:05:46;;;;;;;3.27;1.17;;;23.20;72.00;;;;;;4984688;28;20428;-76
2022/07/05 16:08:13;;;;;;;9.83;1.13;;;23.30;72.80;;;;;;4984442;28;20208;-78
2022/07/05 17:31:06;;;;;;;5.13;1.40;;;24.00;72.00;;;;;;5209731;22;20492;-79
2022/07/05 17:33:32;;;;;;;6.23;2.27;;;24.10;74.00;;;;;;4959492;28;20449;-79
2022/07/05 17:35:57;;;;;;;3.47;1.00;;;24.00;73.50;;;;;;4978897;28;20461;-79
2022/07/05 17:38:23;;;;;;;8.03;1.33;;;23.80;71.90;;;;;;4980542;28;20205;-79
2022/07/05 17:40:48;;;;;;;3.13;1.10;;;23.60;73.30;;;;;;4977689;28;20202;-78
2022/07/05 17:43:14;;;;;;;1.90;1.03;;;23.40;74.00;;;;;;4983641;28;20234;-78
2022/07/05 17:45:39;;;;;;;1.47;0.93;;;23.20;73.30;;;;;;4981893;28;20184;-78
2022/07/05 17:48:05;;;;;;;2.40;1.00;;;23.10;74.90;;;;;;4975069;28;20182;-78
2022/07/05 17:50:31;;;;;;;3.67;1.10;;;22.90;75.40;;;;;;4977001;28;20208;-79
2022/07/05 17:52:57;;;;;;;3.37;1.40;;;22.70;76.30;;;;;;4977053;28;20178;-79
2022/07/05 17:55:22;;;;;;;2.10;1.20;;;22.50;76.00;;;;;;4980550;28;20555;-79
2022/07/05 17:57:48;;;;;;;1.70;1.07;;;22.40;77.60;;;;;;4961481;28;20182;-78
2022/07/05 18:07:59;;;;;;;3.67;0.97;;;22.00;82.20;;;;;;5796886;22;20508;-78
2022/07/05 18:10:27;;;;;;;7.73;1.17;;;22.00;82.50;;;;;;4980594;28;20521;-76
2022/07/05 18:12:54;;;;;;;2.90;1.10;;;21.90;83.20;;;;;;4966162;28;20828;-76
2022/07/05 18:15:20;;;;;;;3.90;0.90;;;21.80;80.10;;;;;;4952757;28;20457;-76
2022/07/05 18:17:45;;;;;;;4.70;1.20;;;21.70;79.40;;;;;;4955558;29;20419;-76
2022/07/05 18:20:11;;;;;;;4.53;1.00;;;21.60;78.80;;;;;;4956315;28;20191;-77
2022/07/05 18:22:36;;;;;;;5.87;1.97;;;21.50;80.70;;;;;;4960310;28;20181;-76
2022/07/05 18:25:02;;;;;;;5.40;2.13;;;21.40;81.20;;;;;;4972703;28;20229;-76
2022/07/05 18:27:28;;;;;;;13.63;1.60;;;21.40;82.60;;;;;;4967085;28;20193;-76
2022/07/05 18:29:53;;;;;;;5.60;1.30;;;21.20;84.30;;;;;;4974817;28;20484;-76
2022/07/05 18:32:19;;;;;;;6.00;1.30;;;21.00;84.50;;;;;;4975315;28;20305;-77
2022/07/05 18:34:45;;;;;;;6.43;1.10;;;20.90;85.70;;;;;;4975243;28;20181;-76